< < Back
Terminal Aerodrome Forecast


Current Version              Previous Versions:   1  2  3  4  5  6  7  8  9  

Terminal Aerodrome Forecast

425
FTUS42 KGSP 220900 AAA
TAFAVL
TAF AMD
KAVL 220900Z 2209/2306 34008KT P6SM SCT050
     FM221300 35009G16KT P6SM FEW050
     FM230300 35005KT P6SM SKC=



Latest METAR

897
SAUS70 KWBC 230600 RRE
MTRAVL
METAR KAVL 230554Z AUTO 00000KT 10SM OVC044 12/09 A3024 RMK AO2 SLP223
T01220094 10172 20117 53006


USA.gov is the U.S. government's official web portal to all federal, state and local government web resources and services.